sensor_id;sensor_type;location;lat;lon;timestamp;pressure;altitude;pressure_sealevel;temperature
15626;BMP180;7912;51.376;6.126;2023-04-25T00:02:25;100729.00;;;10.70
15626;BMP180;7912;51.376;6.126;2023-04-25T00:04:52;100738.00;;;10.70
15626;BMP180;7912;51.376;6.126;2023-04-25T00:07:20;100741.00;;;10.70
15626;BMP180;7912;51.376;6.126;2023-04-25T00:09:48;100746.00;;;10.70
15626;BMP180;7912;51.376;6.126;2023-04-25T00:12:15;100740.00;;;10.80
15626;BMP180;7912;51.376;6.126;2023-04-25T00:14:43;100732.00;;;10.80
15626;BMP180;7912;51.376;6.126;2023-04-25T00:17:12;100733.00;;;10.80
15626;BMP180;7912;51.376;6.126;2023-04-25T00:19:39;100746.00;;;10.80
15626;BMP180;7912;51.376;6.126;2023-04-25T00:22:07;100740.00;;;10.80
15626;BMP180;7912;51.376;6.126;2023-04-25T00:24:34;100751.00;;;10.90
15626;BMP180;7912;51.376;6.126;2023-04-25T00:27:01;100752.00;;;10.90
15626;BMP180;7912;51.376;6.126;2023-04-25T00:29:28;100750.00;;;10.90
15626;BMP180;7912;51.376;6.126;2023-04-25T00:31:56;100742.00;;;11.00
15626;BMP180;7912;51.376;6.126;2023-04-25T00:34:23;100752.00;;;10.90
15626;BMP180;7912;51.376;6.126;2023-04-25T00:36:50;100735.00;;;11.00
15626;BMP180;7912;51.376;6.126;2023-04-25T00:39:17;100755.00;;;10.90
15626;BMP180;7912;51.376;6.126;2023-04-25T00:41:45;100749.00;;;10.90
15626;BMP180;7912;51.376;6.126;2023-04-25T00:44:13;100747.00;;;10.90
15626;BMP180;7912;51.376;6.126;2023-04-25T00:46:42;100746.00;;;10.90
15626;BMP180;7912;51.376;6.126;2023-04-25T00:49:10;100745.00;;;10.90
15626;BMP180;7912;51.376;6.126;2023-04-25T00:51:43;100736.00;;;10.90
15626;BMP180;7912;51.376;6.126;2023-04-25T00:54:12;100744.00;;;10.90
15626;BMP180;7912;51.376;6.126;2023-04-25T00:56:40;100751.00;;;10.80
15626;BMP180;7912;51.376;6.126;2023-04-25T00:59:09;100746.00;;;10.80
15626;BMP180;7912;51.376;6.126;2023-04-25T01:01:38;100751.00;;;10.80
15626;BMP180;7912;51.376;6.126;2023-04-25T01:04:06;100753.00;;;10.80
15626;BMP180;7912;51.376;6.126;2023-04-25T01:06:34;100749.00;;;10.80
15626;BMP180;7912;51.376;6.126;2023-04-25T01:09:02;100747.00;;;10.80
15626;BMP180;7912;51.376;6.126;2023-04-25T01:11:31;100749.00;;;10.80
15626;BMP180;7912;51.376;6.126;2023-04-25T01:13:58;100745.00;;;10.80
15626;BMP180;7912;51.376;6.126;2023-04-25T01:16:26;100741.00;;;10.80
15626;BMP180;7912;51.376;6.126;2023-04-25T01:18:54;100755.00;;;10.80
15626;BMP180;7912;51.376;6.126;2023-04-25T01:21:22;100744.00;;;10.80
15626;BMP180;7912;51.376;6.126;2023-04-25T01:23:49;100741.00;;;10.80
15626;BMP180;7912;51.376;6.126;2023-04-25T01:26:17;100752.00;;;10.90
15626;BMP180;7912;51.376;6.126;2023-04-25T01:28:45;100740.00;;;10.90
15626;BMP180;7912;51.376;6.126;2023-04-25T01:31:14;100749.00;;;10.90
15626;BMP180;7912;51.376;6.126;2023-04-25T01:33:42;100754.00;;;11.00
15626;BMP180;7912;51.376;6.126;2023-04-25T01:36:09;100756.00;;;11.00
15626;BMP180;7912;51.376;6.126;2023-04-25T01:38:37;100749.00;;;11.00
15626;BMP180;7912;51.376;6.126;2023-04-25T01:41:05;100753.00;;;11.00
15626;BMP180;7912;51.376;6.126;2023-04-25T01:43:32;100751.00;;;11.00
15626;BMP180;7912;51.376;6.126;2023-04-25T01:46:00;100757.00;;;11.00
15626;BMP180;7912;51.376;6.126;2023-04-25T01:48:27;100761.00;;;11.00
15626;BMP180;7912;51.376;6.126;2023-04-25T01:55:31;100775.00;;;10.90
15626;BMP180;7912;51.376;6.126;2023-04-25T01:57:58;100774.00;;;10.80
15626;BMP180;7912;51.376;6.126;2023-04-25T02:00:27;100769.00;;;10.80
15626;BMP180;7912;51.376;6.126;2023-04-25T02:02:58;100773.00;;;10.70
15626;BMP180;7912;51.376;6.126;2023-04-25T02:05:26;100783.00;;;10.70
15626;BMP180;7912;51.376;6.126;2023-04-25T02:07:53;100783.00;;;10.70
15626;BMP180;7912;51.376;6.126;2023-04-25T02:10:20;100790.00;;;10.60
15626;BMP180;7912;51.376;6.126;2023-04-25T02:12:47;100785.00;;;10.60
15626;BMP180;7912;51.376;6.126;2023-04-25T02:15:15;100787.00;;;10.60
15626;BMP180;7912;51.376;6.126;2023-04-25T02:17:42;100785.00;;;10.60
15626;BMP180;7912;51.376;6.126;2023-04-25T02:20:10;100776.00;;;10.50
15626;BMP180;7912;51.376;6.126;2023-04-25T02:22:37;100790.00;;;10.50
15626;BMP180;7912;51.376;6.126;2023-04-25T02:25:05;100790.00;;;10.40
15626;BMP180;7912;51.376;6.126;2023-04-25T02:27:33;100789.00;;;10.40
15626;BMP180;7912;51.376;6.126;2023-04-25T02:30:00;100787.00;;;10.30
15626;BMP180;7912;51.376;6.126;2023-04-25T02:32:27;100797.00;;;10.20
15626;BMP180;7912;51.376;6.126;2023-04-25T02:34:55;100790.00;;;10.20
15626;BMP180;7912;51.376;6.126;2023-04-25T02:37:22;100795.00;;;10.20
15626;BMP180;7912;51.376;6.126;2023-04-25T02:39:49;100796.00;;;10.10
15626;BMP180;7912;51.376;6.126;2023-04-25T02:42:16;100797.00;;;10.00
15626;BMP180;7912;51.376;6.126;2023-04-25T02:44:44;100801.00;;;10.00
15626;BMP180;7912;51.376;6.126;2023-04-25T02:47:11;100797.00;;;9.90
15626;BMP180;7912;51.376;6.126;2023-04-25T02:49:38;100798.00;;;9.90
15626;BMP180;7912;51.376;6.126;2023-04-25T02:52:06;100797.00;;;9.80
15626;BMP180;7912;51.376;6.126;2023-04-25T02:54:33;100793.00;;;9.80
15626;BMP180;7912;51.376;6.126;2023-04-25T02:57:00;100797.00;;;9.80
15626;BMP180;7912;51.376;6.126;2023-04-25T02:59:29;100800.00;;;9.80
15626;BMP180;7912;51.376;6.126;2023-04-25T03:01:57;100799.00;;;9.80
15626;BMP180;7912;51.376;6.126;2023-04-25T03:04:24;100792.00;;;9.80
15626;BMP180;7912;51.376;6.126;2023-04-25T03:06:52;100788.00;;;9.80
15626;BMP180;7912;51.376;6.126;2023-04-25T03:09:20;100793.00;;;9.80
15626;BMP180;7912;51.376;6.126;2023-04-25T03:11:47;100784.00;;;9.80
15626;BMP180;7912;51.376;6.126;2023-04-25T03:14:14;100788.00;;;9.80
15626;BMP180;7912;51.376;6.126;2023-04-25T03:16:42;100793.00;;;9.80
15626;BMP180;7912;51.376;6.126;2023-04-25T03:19:09;100794.00;;;9.70
15626;BMP180;7912;51.376;6.126;2023-04-25T03:21:36;100792.00;;;9.70
15626;BMP180;7912;51.376;6.126;2023-04-25T03:24:04;100789.00;;;9.70
15626;BMP180;7912;51.376;6.126;2023-04-25T03:26:33;100796.00;;;9.60
15626;BMP180;7912;51.376;6.126;2023-04-25T03:29:02;100798.00;;;9.60
15626;BMP180;7912;51.376;6.126;2023-04-25T03:31:30;100793.00;;;9.60
15626;BMP180;7912;51.376;6.126;2023-04-25T03:33:57;100796.00;;;9.50
15626;BMP180;7912;51.376;6.126;2023-04-25T03:36:24;100799.00;;;9.50
15626;BMP180;7912;51.376;6.126;2023-04-25T03:38:52;100799.00;;;9.40
15626;BMP180;7912;51.376;6.126;2023-04-25T03:41:19;100801.00;;;9.40
15626;BMP180;7912;51.376;6.126;2023-04-25T03:43:47;100805.00;;;9.40
15626;BMP180;7912;51.376;6.126;2023-04-25T03:46:14;100808.00;;;9.30
15626;BMP180;7912;51.376;6.126;2023-04-25T03:48:44;100815.00;;;9.30
15626;BMP180;7912;51.376;6.126;2023-04-25T03:51:11;100821.00;;;9.30
15626;BMP180;7912;51.376;6.126;2023-04-25T03:53:39;100828.00;;;9.20
15626;BMP180;7912;51.376;6.126;2023-04-25T03:56:06;100825.00;;;9.20
15626;BMP180;7912;51.376;6.126;2023-04-25T03:58:34;100818.00;;;9.20
15626;BMP180;7912;51.376;6.126;2023-04-25T04:01:01;100835.00;;;9.20
15626;BMP180;7912;51.376;6.126;2023-04-25T04:03:35;100824.00;;;9.20
15626;BMP180;7912;51.376;6.126;2023-04-25T04:06:05;100827.00;;;9.10
15626;BMP180;7912;51.376;6.126;2023-04-25T04:08:36;100829.00;;;9.10
15626;BMP180;7912;51.376;6.126;2023-04-25T04:11:03;100832.00;;;9.10
15626;BMP180;7912;51.376;6.126;2023-04-25T04:13:30;100822.00;;;9.10
15626;BMP180;7912;51.376;6.126;2023-04-25T04:15:59;100832.00;;;9.20
15626;BMP180;7912;51.376;6.126;2023-04-25T04:18:26;100817.00;;;9.20
15626;BMP180;7912;51.376;6.126;2023-04-25T04:20:54;100835.00;;;9.20
15626;BMP180;7912;51.376;6.126;2023-04-25T04:23:21;100833.00;;;9.20
15626;BMP180;7912;51.376;6.126;2023-04-25T04:25:49;100831.00;;;9.20
15626;BMP180;7912;51.376;6.126;2023-04-25T04:28:17;100826.00;;;9.20
15626;BMP180;7912;51.376;6.126;2023-04-25T04:30:44;100827.00;;;9.20
15626;BMP180;7912;51.376;6.126;2023-04-25T04:33:13;100825.00;;;9.30
15626;BMP180;7912;51.376;6.126;2023-04-25T04:35:42;100846.00;;;9.30
15626;BMP180;7912;51.376;6.126;2023-04-25T04:38:09;100833.00;;;9.30
15626;BMP180;7912;51.376;6.126;2023-04-25T04:40:41;100824.00;;;9.40
15626;BMP180;7912;51.376;6.126;2023-04-25T04:43:10;100827.00;;;9.40
15626;BMP180;7912;51.376;6.126;2023-04-25T04:45:37;100836.00;;;9.40
15626;BMP180;7912;51.376;6.126;2023-04-25T04:48:07;100845.00;;;9.50
15626;BMP180;7912;51.376;6.126;2023-04-25T04:50:35;100851.00;;;9.60
15626;BMP180;7912;51.376;6.126;2023-04-25T04:53:04;100845.00;;;9.60
15626;BMP180;7912;51.376;6.126;2023-04-25T04:55:32;100849.00;;;9.70
15626;BMP180;7912;51.376;6.126;2023-04-25T05:02:09;100860.00;;;9.80
15626;BMP180;7912;51.376;6.126;2023-04-25T05:04:39;100853.00;;;9.90
15626;BMP180;7912;51.376;6.126;2023-04-25T05:07:07;100860.00;;;10.00
15626;BMP180;7912;51.376;6.126;2023-04-25T05:13:35;100856.00;;;10.10
15626;BMP180;7912;51.376;6.126;2023-04-25T05:16:05;100867.00;;;10.20
15626;BMP180;7912;51.376;6.126;2023-04-25T05:18:36;100868.00;;;10.30
15626;BMP180;7912;51.376;6.126;2023-04-25T05:21:03;100871.00;;;10.40
15626;BMP180;7912;51.376;6.126;2023-04-25T05:23:32;100879.00;;;10.50
15626;BMP180;7912;51.376;6.126;2023-04-25T05:26:00;100890.00;;;10.60
15626;BMP180;7912;51.376;6.126;2023-04-25T05:28:27;100886.00;;;10.60
15626;BMP180;7912;51.376;6.126;2023-04-25T05:30:56;100899.00;;;10.70
15626;BMP180;7912;51.376;6.126;2023-04-25T05:37:35;100908.00;;;10.80
15626;BMP180;7912;51.376;6.126;2023-04-25T05:40:03;100897.00;;;10.80
15626;BMP180;7912;51.376;6.126;2023-04-25T05:42:37;100899.00;;;10.90
15626;BMP180;7912;51.376;6.126;2023-04-25T05:45:05;100910.00;;;11.00
15626;BMP180;7912;51.376;6.126;2023-04-25T05:47:32;100905.00;;;11.00
15626;BMP180;7912;51.376;6.126;2023-04-25T05:49:59;100905.00;;;11.00
15626;BMP180;7912;51.376;6.126;2023-04-25T05:52:27;100902.00;;;11.10
15626;BMP180;7912;51.376;6.126;2023-04-25T05:54:54;100912.00;;;11.10
15626;BMP180;7912;51.376;6.126;2023-04-25T05:57:26;100917.00;;;11.10
15626;BMP180;7912;51.376;6.126;2023-04-25T05:59:54;100916.00;;;11.10
15626;BMP180;7912;51.376;6.126;2023-04-25T06:02:21;100922.00;;;11.10
15626;BMP180;7912;51.376;6.126;2023-04-25T06:04:52;100920.00;;;11.00
15626;BMP180;7912;51.376;6.126;2023-04-25T06:07:20;100918.00;;;10.90
15626;BMP180;7912;51.376;6.126;2023-04-25T06:09:49;100922.00;;;10.90
15626;BMP180;7912;51.376;6.126;2023-04-25T06:12:16;100927.00;;;10.90
15626;BMP180;7912;51.376;6.126;2023-04-25T06:14:43;100927.00;;;10.90
15626;BMP180;7912;51.376;6.126;2023-04-25T06:17:10;100923.00;;;10.90
15626;BMP180;7912;51.376;6.126;2023-04-25T06:19:38;100934.00;;;10.90
15626;BMP180;7912;51.376;6.126;2023-04-25T06:22:07;100943.00;;;10.90
15626;BMP180;7912;51.376;6.126;2023-04-25T06:24:35;100940.00;;;11.00
15626;BMP180;7912;51.376;6.126;2023-04-25T06:27:02;100935.00;;;11.10
15626;BMP180;7912;51.376;6.126;2023-04-25T06:29:50;100945.00;;;11.20
15626;BMP180;7912;51.376;6.126;2023-04-25T06:32:17;100949.00;;;11.40
15626;BMP180;7912;51.376;6.126;2023-04-25T06:34:45;100941.00;;;11.60
15626;BMP180;7912;51.376;6.126;2023-04-25T06:37:12;100941.00;;;11.80
15626;BMP180;7912;51.376;6.126;2023-04-25T06:39:40;100943.00;;;11.90
15626;BMP180;7912;51.376;6.126;2023-04-25T06:42:07;100951.00;;;12.00
15626;BMP180;7912;51.376;6.126;2023-04-25T06:44:35;100949.00;;;12.00
15626;BMP180;7912;51.376;6.126;2023-04-25T06:47:02;100951.00;;;12.10
15626;BMP180;7912;51.376;6.126;2023-04-25T06:49:34;100964.00;;;12.00
15626;BMP180;7912;51.376;6.126;2023-04-25T06:52:02;100964.00;;;12.00
15626;BMP180;7912;51.376;6.126;2023-04-25T06:54:29;100954.00;;;12.10
15626;BMP180;7912;51.376;6.126;2023-04-25T06:56:57;100960.00;;;12.10
15626;BMP180;7912;51.376;6.126;2023-04-25T06:59:24;100954.00;;;12.20
15626;BMP180;7912;51.376;6.126;2023-04-25T07:01:51;100953.00;;;12.40
15626;BMP180;7912;51.376;6.126;2023-04-25T07:04:19;100962.00;;;12.60
15626;BMP180;7912;51.376;6.126;2023-04-25T07:06:47;100956.00;;;12.70
15626;BMP180;7912;51.376;6.126;2023-04-25T07:09:15;100966.00;;;12.80
15626;BMP180;7912;51.376;6.126;2023-04-25T07:11:43;100961.00;;;12.90
15626;BMP180;7912;51.376;6.126;2023-04-25T07:14:10;100957.00;;;13.10
15626;BMP180;7912;51.376;6.126;2023-04-25T07:16:37;100961.00;;;13.40
15626;BMP180;7912;51.376;6.126;2023-04-25T07:19:05;100962.00;;;13.90
15626;BMP180;7912;51.376;6.126;2023-04-25T07:21:32;100965.00;;;14.20
15626;BMP180;7912;51.376;6.126;2023-04-25T07:24:00;100966.00;;;14.30
15626;BMP180;7912;51.376;6.126;2023-04-25T07:26:27;100966.00;;;14.40
15626;BMP180;7912;51.376;6.126;2023-04-25T07:28:55;100969.00;;;14.40
15626;BMP180;7912;51.376;6.126;2023-04-25T07:31:22;100978.00;;;14.40
15626;BMP180;7912;51.376;6.126;2023-04-25T07:33:50;100986.00;;;14.30
15626;BMP180;7912;51.376;6.126;2023-04-25T07:36:17;100989.00;;;14.40
15626;BMP180;7912;51.376;6.126;2023-04-25T07:38:45;100978.00;;;14.50
15626;BMP180;7912;51.376;6.126;2023-04-25T07:41:14;100991.00;;;14.70
15626;BMP180;7912;51.376;6.126;2023-04-25T07:43:42;100983.00;;;14.80
15626;BMP180;7912;51.376;6.126;2023-04-25T07:46:09;100980.00;;;15.00
15626;BMP180;7912;51.376;6.126;2023-04-25T07:48:37;100985.00;;;15.20
15626;BMP180;7912;51.376;6.126;2023-04-25T07:51:04;100989.00;;;15.50
15626;BMP180;7912;51.376;6.126;2023-04-25T07:53:34;100993.00;;;15.80
15626;BMP180;7912;51.376;6.126;2023-04-25T07:56:03;100996.00;;;15.90
15626;BMP180;7912;51.376;6.126;2023-04-25T07:58:33;101003.00;;;16.00
15626;BMP180;7912;51.376;6.126;2023-04-25T08:01:01;100995.00;;;15.90
15626;BMP180;7912;51.376;6.126;2023-04-25T08:03:28;101010.00;;;15.80
15626;BMP180;7912;51.376;6.126;2023-04-25T08:05:55;101004.00;;;15.50
15626;BMP180;7912;51.376;6.126;2023-04-25T08:08:28;101022.00;;;15.30
15626;BMP180;7912;51.376;6.126;2023-04-25T08:10:55;101026.00;;;15.00
15626;BMP180;7912;51.376;6.126;2023-04-25T08:13:23;101033.00;;;14.80
15626;BMP180;7912;51.376;6.126;2023-04-25T08:15:50;101041.00;;;14.80
15626;BMP180;7912;51.376;6.126;2023-04-25T08:18:17;101056.00;;;14.80
15626;BMP180;7912;51.376;6.126;2023-04-25T08:20:45;101046.00;;;14.70
15626;BMP180;7912;51.376;6.126;2023-04-25T08:23:12;101046.00;;;14.60
15626;BMP180;7912;51.376;6.126;2023-04-25T08:25:40;101059.00;;;14.60
15626;BMP180;7912;51.376;6.126;2023-04-25T08:28:07;101037.00;;;14.50
15626;BMP180;7912;51.376;6.126;2023-04-25T08:30:34;101047.00;;;14.40
15626;BMP180;7912;51.376;6.126;2023-04-25T08:33:02;101062.00;;;14.30
15626;BMP180;7912;51.376;6.126;2023-04-25T08:35:33;101064.00;;;14.20
15626;BMP180;7912;51.376;6.126;2023-04-25T08:38:01;101059.00;;;14.30
15626;BMP180;7912;51.376;6.126;2023-04-25T08:40:38;101059.00;;;14.70
15626;BMP180;7912;51.376;6.126;2023-04-25T08:43:08;101063.00;;;15.20
15626;BMP180;7912;51.376;6.126;2023-04-25T08:45:40;101077.00;;;15.60
15626;BMP180;7912;51.376;6.126;2023-04-25T08:48:16;101085.00;;;15.60
15626;BMP180;7912;51.376;6.126;2023-04-25T08:50:53;101082.00;;;15.70
15626;BMP180;7912;51.376;6.126;2023-04-25T08:53:30;101072.00;;;15.90
15626;BMP180;7912;51.376;6.126;2023-04-25T08:56:01;101072.00;;;16.10
15626;BMP180;7912;51.376;6.126;2023-04-25T08:58:29;101081.00;;;16.10
15626;BMP180;7912;51.376;6.126;2023-04-25T09:00:56;101085.00;;;15.90
15626;BMP180;7912;51.376;6.126;2023-04-25T09:03:24;101085.00;;;15.80
15626;BMP180;7912;51.376;6.126;2023-04-25T09:05:52;101100.00;;;15.80
15626;BMP180;7912;51.376;6.126;2023-04-25T09:08:20;101104.00;;;15.80
15626;BMP180;7912;51.376;6.126;2023-04-25T09:10:47;101102.00;;;15.80
15626;BMP180;7912;51.376;6.126;2023-04-25T09:13:28;101105.00;;;15.90
15626;BMP180;7912;51.376;6.126;2023-04-25T09:15:57;101101.00;;;15.90
15626;BMP180;7912;51.376;6.126;2023-04-25T09:18:33;101109.00;;;15.90
15626;BMP180;7912;51.376;6.126;2023-04-25T09:21:11;101133.00;;;15.80
15626;BMP180;7912;51.376;6.126;2023-04-25T09:23:44;101138.00;;;15.70
15626;BMP180;7912;51.376;6.126;2023-04-25T09:26:19;101143.00;;;15.50
15626;BMP180;7912;51.376;6.126;2023-04-25T09:28:47;101137.00;;;15.50
15626;BMP180;7912;51.376;6.126;2023-04-25T09:31:26;101142.00;;;15.40
15626;BMP180;7912;51.376;6.126;2023-04-25T09:34:00;101144.00;;;15.30
15626;BMP180;7912;51.376;6.126;2023-04-25T09:36:31;101155.00;;;15.30
15626;BMP180;7912;51.376;6.126;2023-04-25T09:39:00;101156.00;;;15.30
15626;BMP180;7912;51.376;6.126;2023-04-25T09:41:31;101145.00;;;15.30
15626;BMP180;7912;51.376;6.126;2023-04-25T09:43:59;101152.00;;;15.30
15626;BMP180;7912;51.376;6.126;2023-04-25T09:46:35;101154.00;;;15.30
15626;BMP180;7912;51.376;6.126;2023-04-25T09:49:08;101158.00;;;15.40
15626;BMP180;7912;51.376;6.126;2023-04-25T09:51:35;101155.00;;;15.80
15626;BMP180;7912;51.376;6.126;2023-04-25T09:54:03;101156.00;;;16.40
15626;BMP180;7912;51.376;6.126;2023-04-25T09:56:36;101148.00;;;16.90
15626;BMP180;7912;51.376;6.126;2023-04-25T09:59:06;101140.00;;;17.20
15626;BMP180;7912;51.376;6.126;2023-04-25T10:01:40;101152.00;;;17.40
15626;BMP180;7912;51.376;6.126;2023-04-25T10:04:11;101161.00;;;17.30
15626;BMP180;7912;51.376;6.126;2023-04-25T10:06:42;101154.00;;;17.30
15626;BMP180;7912;51.376;6.126;2023-04-25T10:09:11;101159.00;;;17.60
15626;BMP180;7912;51.376;6.126;2023-04-25T10:11:40;101164.00;;;18.00
15626;BMP180;7912;51.376;6.126;2023-04-25T10:14:08;101166.00;;;18.10
15626;BMP180;7912;51.376;6.126;2023-04-25T10:16:37;101172.00;;;18.30
15626;BMP180;7912;51.376;6.126;2023-04-25T10:19:05;101161.00;;;18.60
15626;BMP180;7912;51.376;6.126;2023-04-25T10:21:34;101157.00;;;19.10
15626;BMP180;7912;51.376;6.126;2023-04-25T10:24:03;101156.00;;;19.40
15626;BMP180;7912;51.376;6.126;2023-04-25T10:26:31;101152.00;;;19.40
15626;BMP180;7912;51.376;6.126;2023-04-25T10:29:02;101163.00;;;19.00
15626;BMP180;7912;51.376;6.126;2023-04-25T10:31:31;101157.00;;;18.60
15626;BMP180;7912;51.376;6.126;2023-04-25T10:34:02;101174.00;;;18.10
15626;BMP180;7912;51.376;6.126;2023-04-25T10:36:32;101171.00;;;17.60
15626;BMP180;7912;51.376;6.126;2023-04-25T10:39:07;101185.00;;;17.30
15626;BMP180;7912;51.376;6.126;2023-04-25T10:41:57;101191.00;;;17.00
15626;BMP180;7912;51.376;6.126;2023-04-25T10:44:28;101193.00;;;16.80
15626;BMP180;7912;51.376;6.126;2023-04-25T10:46:57;101198.00;;;16.70
15626;BMP180;7912;51.376;6.126;2023-04-25T10:49:38;101210.00;;;16.60
15626;BMP180;7912;51.376;6.126;2023-04-25T10:52:13;101225.00;;;16.40
15626;BMP180;7912;51.376;6.126;2023-04-25T10:54:55;101224.00;;;16.00
15626;BMP180;7912;51.376;6.126;2023-04-25T10:57:41;101235.00;;;15.50
15626;BMP180;7912;51.376;6.126;2023-04-25T11:00:14;101233.00;;;15.20
15626;BMP180;7912;51.376;6.126;2023-04-25T11:07:21;101229.00;;;14.30
15626;BMP180;7912;51.376;6.126;2023-04-25T11:09:52;101230.00;;;14.10
15626;BMP180;7912;51.376;6.126;2023-04-25T11:12:26;101218.00;;;14.00
15626;BMP180;7912;51.376;6.126;2023-04-25T11:15:08;101212.00;;;14.20
15626;BMP180;7912;51.376;6.126;2023-04-25T11:17:43;101208.00;;;14.40
15626;BMP180;7912;51.376;6.126;2023-04-25T11:20:14;101206.00;;;14.70
15626;BMP180;7912;51.376;6.126;2023-04-25T11:22:47;101200.00;;;15.10
15626;BMP180;7912;51.376;6.126;2023-04-25T11:25:28;101194.00;;;15.70
15626;BMP180;7912;51.376;6.126;2023-04-25T11:27:59;101197.00;;;16.40
15626;BMP180;7912;51.376;6.126;2023-04-25T11:30:35;101190.00;;;17.20
15626;BMP180;7912;51.376;6.126;2023-04-25T11:33:03;101177.00;;;18.00
15626;BMP180;7912;51.376;6.126;2023-04-25T11:35:32;101183.00;;;18.80
15626;BMP180;7912;51.376;6.126;2023-04-25T11:38:01;101173.00;;;19.50
15626;BMP180;7912;51.376;6.126;2023-04-25T11:41:08;101187.00;;;20.10
15626;BMP180;7912;51.376;6.126;2023-04-25T11:43:36;101183.00;;;20.70
15626;BMP180;7912;51.376;6.126;2023-04-25T11:50:32;101185.00;;;21.00
15626;BMP180;7912;51.376;6.126;2023-04-25T11:53:02;101180.00;;;21.40
15626;BMP180;7912;51.376;6.126;2023-04-25T11:55:30;101186.00;;;21.70
15626;BMP180;7912;51.376;6.126;2023-04-25T11:58:00;101189.00;;;22.00
15626;BMP180;7912;51.376;6.126;2023-04-25T12:00:28;101178.00;;;22.10
15626;BMP180;7912;51.376;6.126;2023-04-25T12:07:10;101217.00;;;21.40
15626;BMP180;7912;51.376;6.126;2023-04-25T12:09:37;101227.00;;;20.50
15626;BMP180;7912;51.376;6.126;2023-04-25T12:12:04;101238.00;;;19.60
15626;BMP180;7912;51.376;6.126;2023-04-25T12:14:35;101241.00;;;18.70
15626;BMP180;7912;51.376;6.126;2023-04-25T12:17:04;101245.00;;;18.00
15626;BMP180;7912;51.376;6.126;2023-04-25T12:19:37;101251.00;;;17.30
15626;BMP180;7912;51.376;6.126;2023-04-25T12:22:23;101240.00;;;16.70
15626;BMP180;7912;51.376;6.126;2023-04-25T12:24:50;101260.00;;;16.20
15626;BMP180;7912;51.376;6.126;2023-04-25T12:27:20;101257.00;;;15.80
15626;BMP180;7912;51.376;6.126;2023-04-25T12:29:55;101265.00;;;15.50
15626;BMP180;7912;51.376;6.126;2023-04-25T12:32:25;101258.00;;;15.30
15626;BMP180;7912;51.376;6.126;2023-04-25T12:34:59;101260.00;;;15.10
15626;BMP180;7912;51.376;6.126;2023-04-25T12:37:28;101258.00;;;15.00
15626;BMP180;7912;51.376;6.126;2023-04-25T12:39:59;101276.00;;;14.90
15626;BMP180;7912;51.376;6.126;2023-04-25T12:46:26;101276.00;;;14.60
15626;BMP180;7912;51.376;6.126;2023-04-25T12:52:54;101289.00;;;14.80
15626;BMP180;7912;51.376;6.126;2023-04-25T12:55:21;101275.00;;;14.90
15626;BMP180;7912;51.376;6.126;2023-04-25T13:01:59;101276.00;;;15.40
15626;BMP180;7912;51.376;6.126;2023-04-25T13:04:27;101275.00;;;15.70
15626;BMP180;7912;51.376;6.126;2023-04-25T13:06:55;101256.00;;;16.00
15626;BMP180;7912;51.376;6.126;2023-04-25T13:09:24;101240.00;;;16.60
15626;BMP180;7912;51.376;6.126;2023-04-25T13:11:53;101255.00;;;17.10
15626;BMP180;7912;51.376;6.126;2023-04-25T13:18:36;101242.00;;;18.30
15626;BMP180;7912;51.376;6.126;2023-04-25T13:21:05;101245.00;;;18.60
15626;BMP180;7912;51.376;6.126;2023-04-25T13:23:51;101226.00;;;19.40
15626;BMP180;7912;51.376;6.126;2023-04-25T13:26:22;101230.00;;;20.10
15626;BMP180;7912;51.376;6.126;2023-04-25T13:28:49;101228.00;;;20.60
15626;BMP180;7912;51.376;6.126;2023-04-25T13:31:16;101223.00;;;21.20
15626;BMP180;7912;51.376;6.126;2023-04-25T13:33:44;101219.00;;;21.80
15626;BMP180;7912;51.376;6.126;2023-04-25T13:36:11;101223.00;;;22.00
15626;BMP180;7912;51.376;6.126;2023-04-25T13:38:38;101223.00;;;21.70
15626;BMP180;7912;51.376;6.126;2023-04-25T13:41:06;101247.00;;;21.20
15626;BMP180;7912;51.376;6.126;2023-04-25T13:43:34;101248.00;;;20.60
15626;BMP180;7912;51.376;6.126;2023-04-25T13:46:03;101245.00;;;20.10
15626;BMP180;7912;51.376;6.126;2023-04-25T13:48:31;101253.00;;;19.70
15626;BMP180;7912;51.376;6.126;2023-04-25T13:50:58;101254.00;;;19.50
15626;BMP180;7912;51.376;6.126;2023-04-25T13:53:25;101247.00;;;19.50
15626;BMP180;7912;51.376;6.126;2023-04-25T13:55:53;101239.00;;;19.60
15626;BMP180;7912;51.376;6.126;2023-04-25T13:58:20;101232.00;;;19.90
15626;BMP180;7912;51.376;6.126;2023-04-25T14:00:47;101244.00;;;20.30
15626;BMP180;7912;51.376;6.126;2023-04-25T14:03:15;101234.00;;;20.50
15626;BMP180;7912;51.376;6.126;2023-04-25T14:05:42;101231.00;;;20.70
15626;BMP180;7912;51.376;6.126;2023-04-25T14:08:13;101235.00;;;20.80
15626;BMP180;7912;51.376;6.126;2023-04-25T14:11:01;101257.00;;;20.50
15626;BMP180;7912;51.376;6.126;2023-04-25T14:13:30;101255.00;;;20.00
15626;BMP180;7912;51.376;6.126;2023-04-25T14:16:00;101253.00;;;19.40
15626;BMP180;7912;51.376;6.126;2023-04-25T14:18:29;101268.00;;;18.80
15626;BMP180;7912;51.376;6.126;2023-04-25T14:20:57;101260.00;;;18.70
15626;BMP180;7912;51.376;6.126;2023-04-25T14:23:25;101265.00;;;18.90
15626;BMP180;7912;51.376;6.126;2023-04-25T14:25:52;101268.00;;;18.90
15626;BMP180;7912;51.376;6.126;2023-04-25T14:28:20;101267.00;;;18.70
15626;BMP180;7912;51.376;6.126;2023-04-25T14:30:47;101270.00;;;18.80
15626;BMP180;7912;51.376;6.126;2023-04-25T14:33:14;101258.00;;;19.00
15626;BMP180;7912;51.376;6.126;2023-04-25T14:35:42;101262.00;;;19.20
15626;BMP180;7912;51.376;6.126;2023-04-25T14:38:10;101256.00;;;19.30
15626;BMP180;7912;51.376;6.126;2023-04-25T14:40:38;101264.00;;;19.20
15626;BMP180;7912;51.376;6.126;2023-04-25T14:43:08;101263.00;;;19.20
15626;BMP180;7912;51.376;6.126;2023-04-25T14:45:36;101270.00;;;19.40
15626;BMP180;7912;51.376;6.126;2023-04-25T14:48:04;101279.00;;;19.50
15626;BMP180;7912;51.376;6.126;2023-04-25T14:50:32;101276.00;;;19.60
15626;BMP180;7912;51.376;6.126;2023-04-25T14:53:02;101278.00;;;19.50
15626;BMP180;7912;51.376;6.126;2023-04-25T14:55:30;101271.00;;;19.60
15626;BMP180;7912;51.376;6.126;2023-04-25T14:57:57;101278.00;;;19.50
15626;BMP180;7912;51.376;6.126;2023-04-25T15:00:26;101291.00;;;19.40
15626;BMP180;7912;51.376;6.126;2023-04-25T15:02:53;101302.00;;;19.10
15626;BMP180;7912;51.376;6.126;2023-04-25T15:05:21;101284.00;;;19.00
15626;BMP180;7912;51.376;6.126;2023-04-25T15:07:48;101285.00;;;19.10
15626;BMP180;7912;51.376;6.126;2023-04-25T15:10:18;101298.00;;;19.30